createdAt,value
2022-12-04T00:03:10.185Z,75.07
2022-12-04T00:08:14.962Z,66.82
2022-12-04T00:13:17.523Z,69.68
2022-12-04T00:18:20.386Z,73.13
2022-12-04T00:23:23.007Z,75.18
2022-12-04T00:28:25.869Z,76.95
2022-12-04T00:33:28.552Z,77.75
2022-12-04T00:38:31.326Z,74.90
2022-12-04T00:43:34.012Z,77.18
2022-12-04T00:48:36.578Z,70.13
2022-12-04T00:53:39.597Z,75.13
2022-12-04T00:58:42.161Z,78.80
2022-12-04T01:03:44.861Z,77.35
2022-12-04T01:08:47.712Z,78.75
2022-12-04T01:13:50.225Z,73.22
2022-12-04T01:18:52.913Z,75.18
2022-12-04T01:23:55.543Z,84.10
2022-12-04T01:28:58.098Z,78.50
2022-12-04T01:34:00.784Z,78.65
2022-12-04T01:39:03.402Z,80.32
2022-12-04T01:44:07.137Z,86.95
2022-12-04T01:49:24.821Z,82.50
2022-12-04T01:54:30.174Z,86.35
2022-12-04T01:59:40.278Z,79.70
2022-12-04T02:04:43.833Z,83.85
2022-12-04T02:09:53.911Z,86.30
2022-12-04T02:14:59.624Z,81.82
2022-12-04T02:20:14.512Z,87.50
2022-12-04T02:25:25.978Z,85.88
2022-12-04T02:30:29.251Z,86.97
2022-12-04T02:35:34.623Z,83.88
2022-12-04T02:40:45.484Z,84.20
2022-12-04T02:46:09.982Z,83.80
2022-12-04T02:51:14.648Z,77.70
2022-12-04T02:56:19.704Z,79.60
2022-12-04T03:01:25.335Z,83.05
2022-12-04T03:06:29.841Z,83.90
2022-12-04T03:11:33.936Z,85.50
2022-12-04T03:16:39.617Z,75.25
2022-12-04T03:21:46.310Z,75.50
2022-12-04T03:27:12.065Z,79.63
2022-12-04T03:32:19.711Z,82.80
2022-12-04T03:37:35.320Z,78.65
2022-12-04T03:42:48.072Z,76.13
2022-12-04T03:47:56.981Z,75.90
2022-12-04T03:53:18.039Z,73.93
2022-12-04T03:58:23.641Z,77.55
2022-12-04T04:03:31.676Z,73.60
2022-12-04T04:08:36.208Z,71.97
2022-12-04T04:14:01.670Z,68.20
2022-12-04T04:19:22.610Z,66.68
2022-12-04T04:24:38.986Z,80.90
2022-12-04T04:29:45.526Z,77.68
2022-12-04T04:34:53.315Z,69.63
2022-12-04T04:40:04.611Z,68.15
2022-12-04T04:45:16.181Z,72.93
2022-12-04T04:50:19.467Z,67.00
2022-12-04T04:55:22.499Z,73.20
2022-12-04T05:00:25.055Z,67.72
2022-12-04T05:05:27.669Z,65.47
2022-12-04T05:10:30.244Z,70.53
2022-12-04T05:15:32.745Z,70.63
2022-12-04T05:20:38.222Z,66.25
2022-12-04T05:25:40.799Z,65.88
2022-12-04T05:30:43.643Z,71.43
2022-12-04T05:35:46.286Z,67.72
2022-12-04T05:40:48.864Z,71.07
2022-12-04T05:45:51.381Z,67.60
2022-12-04T05:50:53.944Z,71.75
2022-12-04T05:56:01.027Z,71.20
2022-12-04T06:01:10.852Z,74.30
2022-12-04T06:06:21.689Z,68.43
2022-12-04T06:11:26.281Z,71.60
2022-12-04T06:16:30.073Z,72.82
2022-12-04T06:21:33.906Z,72.18
2022-12-04T06:26:36.443Z,66.97
2022-12-04T06:31:39.496Z,74.85
2022-12-04T06:36:42.521Z,72.38
2022-12-04T06:41:45.142Z,74.18
2022-12-04T06:46:50.062Z,75.53
2022-12-04T06:51:52.961Z,67.93
2022-12-04T06:56:55.567Z,73.57
2022-12-04T07:01:58.437Z,78.10
2022-12-04T07:07:01.137Z,72.80
2022-12-04T07:12:03.936Z,67.53
2022-12-04T07:17:06.684Z,69.07
2022-12-04T07:22:09.632Z,67.97
2022-12-04T07:27:12.332Z,73.43
2022-12-04T07:32:14.930Z,68.97
2022-12-04T07:37:17.744Z,69.28
2022-12-04T07:42:24.078Z,72.13
2022-12-04T07:47:27.248Z,67.10
2022-12-04T07:52:29.853Z,70.38
2022-12-04T07:57:32.483Z,68.18
2022-12-04T08:02:35.023Z,63.30
2022-12-04T08:07:37.694Z,68.78
2022-12-04T08:12:40.322Z,70.18
2022-12-04T08:17:43.036Z,65.88
2022-12-04T08:22:45.647Z,65.40
2022-12-04T08:27:48.244Z,62.30
2022-12-04T08:32:53.400Z,72.78
2022-12-04T08:37:56.059Z,64.32
2022-12-04T08:42:58.935Z,69.20
2022-12-04T08:48:02.362Z,69.15
2022-12-04T08:53:05.209Z,64.22
2022-12-04T08:58:07.925Z,65.20
2022-12-04T09:03:14.479Z,58.65
2022-12-04T09:08:17.873Z,61.28
2022-12-04T09:13:20.564Z,60.45
2022-12-04T09:18:23.112Z,60.95
2022-12-04T09:23:26.010Z,62.85
2022-12-04T09:28:29.792Z,59.55
2022-12-04T09:33:33.162Z,59.33
2022-12-04T09:38:35.739Z,62.17
2022-12-04T09:43:48.383Z,59.33
2022-12-04T09:48:51.215Z,57.90
2022-12-04T09:53:57.667Z,52.83
2022-12-04T09:59:06.770Z,59.80
2022-12-04T10:04:10.173Z,53.95
2022-12-04T10:09:12.846Z,59.40
2022-12-04T10:14:15.523Z,60.80
2022-12-04T10:19:37.171Z,56.85
2022-12-04T10:24:40.521Z,59.63
2022-12-04T10:29:43.902Z,57.63
2022-12-04T10:34:47.482Z,52.05
2022-12-04T10:39:58.559Z,55.85
2022-12-04T10:45:01.637Z,54.30
2022-12-04T10:50:12.994Z,51.35
2022-12-04T10:55:15.593Z,58.25
2022-12-04T11:00:21.398Z,54.08
2022-12-04T11:05:24.017Z,50.72
2022-12-04T11:10:38.047Z,48.15
2022-12-04T11:15:44.761Z,51.25
2022-12-04T11:20:51.690Z,54.67
2022-12-04T11:25:59.366Z,54.13
2022-12-04T11:31:05.128Z,59.08
2022-12-04T11:36:18.584Z,50.72
2022-12-04T11:41:29.545Z,50.95
2022-12-04T11:46:34.357Z,48.33
2022-12-04T11:51:50.212Z,53.90
2022-12-04T11:57:15.837Z,47.22
2022-12-04T12:02:40.821Z,52.05
2022-12-04T12:07:43.577Z,68.35
2022-12-04T12:12:52.262Z,49.15
2022-12-04T12:18:15.332Z,50.80
2022-12-04T12:23:23.929Z,51.17
2022-12-04T12:28:26.462Z,50.60
2022-12-04T12:33:31.119Z,53.53
2022-12-04T12:38:37.035Z,51.70
2022-12-04T12:43:40.002Z,52.05
2022-12-04T12:48:57.997Z,53.58
2022-12-04T12:54:14.689Z,52.22
2022-12-04T12:59:20.436Z,51.95
2022-12-04T13:04:31.628Z,53.78
2022-12-04T13:09:36.511Z,52.92
2022-12-04T13:14:43.440Z,55.50
2022-12-04T13:19:53.308Z,57.70
2022-12-04T13:24:59.038Z,50.65
2022-12-04T13:30:01.980Z,55.35
2022-12-04T13:35:04.552Z,58.30
2022-12-04T13:40:28.244Z,63.00
2022-12-04T13:45:33.287Z,56.95
2022-12-04T13:50:37.102Z,61.85
2022-12-04T13:55:40.355Z,63.95
2022-12-04T14:00:43.862Z,61.42
2022-12-04T14:05:47.694Z,60.17
2022-12-04T14:11:02.128Z,68.28
2022-12-04T14:16:06.303Z,65.07
2022-12-04T14:21:08.886Z,67.85
2022-12-04T14:26:21.039Z,64.80
2022-12-04T14:31:35.613Z,69.13
2022-12-04T14:36:42.261Z,73.20
2022-12-04T14:41:45.093Z,72.05
2022-12-04T14:46:50.724Z,71.40
2022-12-04T14:51:53.345Z,70.72
2022-12-04T14:57:02.282Z,67.82
2022-12-04T15:02:08.947Z,76.63
2022-12-04T15:07:17.019Z,71.28
2022-12-04T15:12:36.715Z,79.18
2022-12-04T15:17:39.343Z,73.30
2022-12-04T15:22:42.007Z,67.45
2022-12-04T15:27:45.620Z,72.00
2022-12-04T15:32:50.780Z,78.03
2022-12-04T15:37:54.286Z,105.60
2022-12-04T15:43:06.865Z,80.20
2022-12-04T15:48:09.621Z,80.43
2022-12-04T15:53:17.843Z,78.40
2022-12-04T15:58:20.400Z,89.82
2022-12-04T16:03:34.067Z,91.70
2022-12-04T16:08:41.499Z,91.38
2022-12-04T16:13:44.140Z,99.10
2022-12-04T16:18:46.972Z,104.20
2022-12-04T16:23:49.594Z,101.85
2022-12-04T16:28:52.204Z,98.43
2022-12-04T16:33:55.013Z,96.88
2022-12-04T16:38:57.717Z,97.38
2022-12-04T16:44:00.940Z,101.78
2022-12-04T16:49:07.425Z,92.68
2022-12-04T16:54:11.811Z,100.10
2022-12-04T16:59:14.523Z,99.93
2022-12-04T17:04:17.734Z,93.82
2022-12-04T17:09:20.562Z,95.60
2022-12-04T17:14:23.223Z,105.38
2022-12-04T17:19:26.164Z,96.47
2022-12-04T17:24:28.812Z,90.97
2022-12-04T17:29:31.444Z,84.45
2022-12-04T17:34:35.096Z,94.80
2022-12-04T17:39:37.852Z,94.32
2022-12-04T17:44:43.377Z,86.78
2022-12-04T17:49:46.252Z,81.88
2022-12-04T17:54:52.309Z,92.13
2022-12-04T17:59:55.081Z,96.32
2022-12-04T18:04:58.022Z,85.45
2022-12-04T18:10:01.334Z,91.07
2022-12-04T18:15:05.583Z,100.28
2022-12-04T18:20:09.024Z,109.38
2022-12-04T18:25:12.412Z,82.68
2022-12-04T18:30:15.346Z,84.63
2022-12-04T18:35:18.294Z,82.60
2022-12-04T18:40:20.974Z,85.25
2022-12-04T18:45:23.559Z,83.18
2022-12-04T18:50:26.136Z,97.95
2022-12-04T18:55:28.725Z,84.85
2022-12-04T19:00:31.404Z,91.05
2022-12-04T19:05:34.159Z,83.78
2022-12-04T19:10:36.704Z,83.40
2022-12-04T19:15:43.377Z,106.20
2022-12-04T19:20:46.024Z,80.50
2022-12-04T19:25:55.672Z,86.82
2022-12-04T19:30:58.487Z,81.80
2022-12-04T19:36:04.282Z,80.93
2022-12-04T19:41:14.505Z,74.03
2022-12-04T19:46:18.437Z,78.85
2022-12-04T19:51:21.534Z,71.88
2022-12-04T19:56:25.431Z,72.90
2022-12-04T20:01:32.602Z,69.63
2022-12-04T20:06:36.998Z,79.78
2022-12-04T20:11:40.149Z,73.40
2022-12-04T20:16:43.360Z,84.10
2022-12-04T20:21:47.043Z,77.75
2022-12-04T20:26:49.958Z,72.50
2022-12-04T20:31:52.709Z,81.20
2022-12-04T20:36:55.675Z,116.57
2022-12-04T20:41:58.313Z,82.93
2022-12-04T20:47:01.020Z,69.30
2022-12-04T20:52:04.132Z,150.48
2022-12-04T20:57:06.852Z,82.13
2022-12-04T21:02:10.581Z,72.40
2022-12-04T21:07:13.343Z,75.38
2022-12-04T21:12:39.903Z,74.05
2022-12-04T21:17:45.733Z,104.72
2022-12-04T21:22:48.508Z,78.50
2022-12-04T21:27:52.023Z,73.68
2022-12-04T21:32:54.739Z,145.18
2022-12-04T21:37:57.579Z,80.38
2022-12-04T21:43:00.288Z,81.63
2022-12-04T21:48:02.894Z,124.97
2022-12-04T21:53:05.574Z,77.07
2022-12-04T21:58:08.238Z,71.28
2022-12-04T22:03:14.139Z,97.43
2022-12-04T22:08:16.923Z,88.45
2022-12-04T22:13:19.672Z,76.95
2022-12-04T22:18:22.241Z,79.53
2022-12-04T22:23:24.834Z,76.22
2022-12-04T22:28:27.435Z,74.43
2022-12-04T22:33:30.789Z,78.95
2022-12-04T22:38:42.450Z,75.47
2022-12-04T22:43:55.152Z,77.32
2022-12-04T22:48:58.641Z,76.63
2022-12-04T22:54:01.397Z,72.70
2022-12-04T22:59:06.718Z,77.78
2022-12-04T23:04:10.069Z,80.45
2022-12-04T23:09:13.997Z,82.68
2022-12-04T23:14:16.702Z,80.22
2022-12-04T23:19:19.480Z,75.60
2022-12-04T23:24:22.118Z,79.82
2022-12-04T23:34:47.201Z,72.17
2022-12-04T23:39:50.104Z,72.13
2022-12-04T23:44:52.946Z,79.57
2022-12-04T23:49:55.731Z,75.38
2022-12-04T23:54:58.666Z,76.90
